createdAt,value
2022-12-08T00:02:27.134Z,1.50
2022-12-08T00:07:47.347Z,1.47
2022-12-08T00:12:49.007Z,1.54
2022-12-08T00:17:50.631Z,1.50
2022-12-08T00:22:52.270Z,1.43
2022-12-08T00:27:53.945Z,1.34
2022-12-08T00:32:55.613Z,1.36
2022-12-08T00:38:00.838Z,1.43
2022-12-08T00:43:02.927Z,1.44
2022-12-08T00:48:04.984Z,1.39
2022-12-08T00:53:06.701Z,1.46
2022-12-08T00:58:08.693Z,1.33
2022-12-08T01:03:11.441Z,1.42
2022-12-08T01:08:13.257Z,1.34
2022-12-08T01:13:15.328Z,1.29
2022-12-08T01:18:17.050Z,1.42
2022-12-08T01:23:18.843Z,1.44
2022-12-08T01:28:20.559Z,1.39
2022-12-08T01:33:22.674Z,1.39
2022-12-08T01:38:24.401Z,1.35
2022-12-08T01:43:26.168Z,1.35
2022-12-08T01:48:28.042Z,1.36
2022-12-08T01:53:35.141Z,1.44
2022-12-08T01:58:40.072Z,1.48
2022-12-08T02:03:50.102Z,1.44
2022-12-08T02:08:52.759Z,1.39
2022-12-08T02:13:56.351Z,1.34
2022-12-08T02:19:34.997Z,1.46
2022-12-08T02:24:44.485Z,1.39
2022-12-08T02:30:02.473Z,1.54
2022-12-08T02:35:26.084Z,1.49
2022-12-08T02:40:35.296Z,1.34
2022-12-08T02:45:44.430Z,1.42
2022-12-08T02:50:46.294Z,1.43
2022-12-08T02:56:05.667Z,1.30
2022-12-08T03:01:34.362Z,1.38
2022-12-08T03:06:48.016Z,1.51
2022-12-08T03:11:54.114Z,1.53
2022-12-08T03:16:58.437Z,1.49
2022-12-08T03:22:05.121Z,1.42
2022-12-08T03:27:11.078Z,1.46
2022-12-08T03:32:51.193Z,1.47
2022-12-08T03:38:02.926Z,1.53
2022-12-08T03:43:04.932Z,1.44
2022-12-08T03:48:06.804Z,1.53
2022-12-08T03:53:08.764Z,1.34
2022-12-08T03:58:10.678Z,1.42
2022-12-08T04:03:12.340Z,1.48
2022-12-08T04:08:14.242Z,1.45
2022-12-08T04:13:15.991Z,1.39
2022-12-08T04:18:18.611Z,1.24
2022-12-08T04:23:20.332Z,1.20
2022-12-08T04:28:22.122Z,1.09
2022-12-08T04:33:23.986Z,1.27
2022-12-08T04:38:26.177Z,1.37
2022-12-08T04:43:28.135Z,1.41
2022-12-08T04:48:30.135Z,1.39
2022-12-08T04:53:32.858Z,1.35
2022-12-08T04:58:34.854Z,1.38
2022-12-08T05:03:36.963Z,1.19
2022-12-08T05:08:38.649Z,1.36
2022-12-08T05:13:40.599Z,1.28
2022-12-08T05:18:43.399Z,1.43
2022-12-08T05:23:45.116Z,1.38
2022-12-08T05:28:46.896Z,1.44
2022-12-08T05:33:50.153Z,1.42
2022-12-08T05:38:51.902Z,1.44
2022-12-08T05:43:53.625Z,1.38
2022-12-08T05:48:55.275Z,1.36
2022-12-08T05:53:57.421Z,1.35
2022-12-08T05:58:59.264Z,1.29
2022-12-08T06:04:03.223Z,1.45
2022-12-08T06:09:06.440Z,1.48
2022-12-08T06:14:11.834Z,1.47
2022-12-08T06:19:13.644Z,1.28
2022-12-08T06:24:15.397Z,1.43
2022-12-08T06:29:17.179Z,1.42
2022-12-08T06:34:19.041Z,1.40
2022-12-08T06:39:20.712Z,1.45
2022-12-08T06:44:22.489Z,1.43
2022-12-08T06:49:24.596Z,1.50
2022-12-08T06:54:26.649Z,1.47
2022-12-08T06:59:28.432Z,1.48
2022-12-08T07:04:30.162Z,1.40
2022-12-08T07:09:31.814Z,1.51
2022-12-08T07:14:33.599Z,1.49
2022-12-08T07:19:35.267Z,1.50
2022-12-08T07:24:37.025Z,1.52
2022-12-08T07:29:38.689Z,1.56
2022-12-08T07:34:40.404Z,1.51
2022-12-08T07:39:42.109Z,1.53
2022-12-08T07:44:43.766Z,1.54
2022-12-08T07:49:45.439Z,1.56
2022-12-08T07:54:47.616Z,1.59
2022-12-08T07:59:49.363Z,1.56
2022-12-08T08:04:51.872Z,1.51
2022-12-08T08:09:53.756Z,1.63
2022-12-08T08:14:55.483Z,1.55
2022-12-08T08:19:57.315Z,1.62
2022-12-08T08:24:59.430Z,1.52
2022-12-08T08:30:01.154Z,1.69
2022-12-08T08:35:03.441Z,1.65
2022-12-08T08:40:06.051Z,1.67
2022-12-08T08:45:08.291Z,1.67
2022-12-08T08:50:10.087Z,1.69
2022-12-08T08:55:12.032Z,1.74
2022-12-08T09:00:14.662Z,1.77
2022-12-08T09:05:16.611Z,1.69
2022-12-08T09:10:18.472Z,1.60
2022-12-08T09:15:20.913Z,1.69
2022-12-08T09:20:22.664Z,1.76
2022-12-08T09:25:24.505Z,1.79
2022-12-08T09:30:26.483Z,1.83
2022-12-08T09:35:28.341Z,1.86
2022-12-08T09:40:37.338Z,1.85
2022-12-08T09:45:39.911Z,1.86
2022-12-08T09:50:48.603Z,1.91
2022-12-08T09:56:03.186Z,1.91
2022-12-08T10:01:04.932Z,1.85
2022-12-08T10:06:18.911Z,1.90
2022-12-08T10:11:32.586Z,1.90
2022-12-08T10:16:39.602Z,1.93
2022-12-08T10:21:41.518Z,2.10
2022-12-08T10:26:43.527Z,2.18
2022-12-08T10:31:45.610Z,2.19
2022-12-08T10:36:52.720Z,2.36
2022-12-08T10:41:54.507Z,2.29
2022-12-08T10:46:56.520Z,2.21
2022-12-08T10:51:58.916Z,2.22
2022-12-08T10:57:00.667Z,2.18
2022-12-08T11:02:02.550Z,2.21
2022-12-08T11:07:11.334Z,2.17
2022-12-08T11:12:15.244Z,2.29
2022-12-08T11:17:22.777Z,2.25
2022-12-08T11:22:26.619Z,2.24
2022-12-08T11:27:28.818Z,2.26
2022-12-08T11:32:30.538Z,2.24
2022-12-08T11:37:39.198Z,2.28
2022-12-08T11:43:25.926Z,2.22
2022-12-08T11:49:06.381Z,2.26
2022-12-08T11:54:28.751Z,2.30
2022-12-08T11:59:39.646Z,2.41
2022-12-08T12:04:50.848Z,2.49
2022-12-08T12:10:08.024Z,2.47
2022-12-08T12:15:27.840Z,2.43
2022-12-08T12:20:37.319Z,2.41
2022-12-08T12:25:54.127Z,2.40
2022-12-08T12:31:03.718Z,2.42
2022-12-08T12:36:07.776Z,2.39
2022-12-08T12:41:12.261Z,2.41
2022-12-08T12:46:22.834Z,2.41
2022-12-08T12:51:45.058Z,2.45
2022-12-08T12:56:55.303Z,2.40
2022-12-08T13:01:57.438Z,2.42
2022-12-08T13:06:59.958Z,2.48
2022-12-08T13:12:12.870Z,2.53
2022-12-08T13:17:24.465Z,2.58
2022-12-08T13:22:51.014Z,2.49
2022-12-08T13:27:53.540Z,2.55
2022-12-08T13:38:25.830Z,2.55
2022-12-08T13:43:55.803Z,2.56
2022-12-08T13:51:23.985Z,2.55
2022-12-08T14:00:08.027Z,2.60
2022-12-08T14:05:19.056Z,2.50
2022-12-08T14:10:27.770Z,2.47
2022-12-08T14:15:37.196Z,2.53
2022-12-08T14:21:05.068Z,2.47
2022-12-08T14:26:05.353Z,2.49
2022-12-08T14:31:08.468Z,2.51
2022-12-08T14:36:14.707Z,2.43
2022-12-08T14:41:16.380Z,2.45
2022-12-08T14:46:23.181Z,2.45
2022-12-08T14:51:32.285Z,2.42
2022-12-08T14:56:51.206Z,2.41
2022-12-08T15:02:10.161Z,2.50
2022-12-08T15:07:16.366Z,2.48
2022-12-08T15:12:27.059Z,2.47
2022-12-08T15:17:34.616Z,2.43
2022-12-08T15:22:36.284Z,2.42
2022-12-08T15:27:47.056Z,2.42
2022-12-08T15:32:54.230Z,2.42
2022-12-08T15:37:56.131Z,2.45
2022-12-08T15:42:57.891Z,2.42
2022-12-08T15:47:59.645Z,2.40
2022-12-08T15:53:01.338Z,2.41
2022-12-08T15:58:52.366Z,2.40
2022-12-08T16:09:00.562Z,2.41
2022-12-08T16:15:01.450Z,2.45
2022-12-08T16:19:34.417Z,2.48
2022-12-08T16:24:36.246Z,2.38
2022-12-08T16:29:38.079Z,2.43
2022-12-08T16:34:39.819Z,2.41
2022-12-08T16:39:45.723Z,2.40
2022-12-08T16:44:47.910Z,2.42
2022-12-08T16:49:49.600Z,2.37
2022-12-08T16:54:51.569Z,2.34
2022-12-08T16:59:53.523Z,2.33
2022-12-08T17:04:55.261Z,2.23
2022-12-08T17:09:57.324Z,2.32
2022-12-08T17:14:59.833Z,2.32
2022-12-08T17:20:05.645Z,2.28
2022-12-08T17:25:08.182Z,2.24
2022-12-08T17:30:12.627Z,2.26
2022-12-08T17:35:15.495Z,2.22
2022-12-08T17:40:17.278Z,2.22
2022-12-08T17:45:19.636Z,2.16
2022-12-08T17:50:21.438Z,2.12
2022-12-08T17:55:23.624Z,2.03
2022-12-08T18:00:26.382Z,2.05
2022-12-08T18:05:28.771Z,2.01
2022-12-08T18:10:30.787Z,1.99
2022-12-08T18:15:37.548Z,2.01
2022-12-08T18:20:41.094Z,1.97
2022-12-08T18:25:43.543Z,1.95
2022-12-08T18:30:46.084Z,1.84
2022-12-08T18:35:48.236Z,1.68
2022-12-08T18:40:50.588Z,1.74
2022-12-08T18:46:02.394Z,1.78
2022-12-08T18:51:10.275Z,1.63
2022-12-08T18:56:21.544Z,1.65
2022-12-08T19:01:23.805Z,1.56
2022-12-08T19:06:27.235Z,1.55
2022-12-08T19:11:29.916Z,1.49
2022-12-08T19:16:32.244Z,1.53
2022-12-08T19:21:35.309Z,1.63
2022-12-08T19:26:39.043Z,1.67
2022-12-08T19:31:42.191Z,1.65
2022-12-08T19:36:44.978Z,1.59
2022-12-08T19:42:06.624Z,1.62
2022-12-08T19:47:09.640Z,1.55
2022-12-08T19:52:13.440Z,1.66
2022-12-08T19:57:17.094Z,1.72
2022-12-08T20:02:20.432Z,1.71
2022-12-08T20:07:22.704Z,1.63
2022-12-08T20:12:27.253Z,1.68
2022-12-08T20:17:29.746Z,1.72
2022-12-08T20:22:32.206Z,1.72
2022-12-08T20:27:35.137Z,1.66
2022-12-08T20:32:37.639Z,1.67
2022-12-08T20:37:39.943Z,1.75
2022-12-08T20:42:42.636Z,1.68
2022-12-08T20:47:46.853Z,1.70
2022-12-08T20:52:49.313Z,1.67
2022-12-08T20:57:51.781Z,1.73
2022-12-08T21:02:56.540Z,1.75
2022-12-08T21:07:58.955Z,1.74
2022-12-08T21:13:02.391Z,1.74
2022-12-08T21:18:04.969Z,1.70
2022-12-08T21:23:06.869Z,1.68
2022-12-08T21:28:08.986Z,1.79
2022-12-08T21:33:10.737Z,1.77
2022-12-08T21:38:12.771Z,1.63
2022-12-08T21:43:14.601Z,1.76
2022-12-08T21:48:16.448Z,1.73
2022-12-08T21:53:18.158Z,1.72
2022-12-08T21:58:20.065Z,1.72
2022-12-08T22:03:22.023Z,1.71
2022-12-08T22:08:24.093Z,1.73
2022-12-08T22:13:25.974Z,1.69
2022-12-08T22:18:28.155Z,1.69
2022-12-08T22:23:30.064Z,1.68
2022-12-08T22:28:35.405Z,1.69
2022-12-08T22:33:38.157Z,1.67
2022-12-08T22:38:40.885Z,1.67
2022-12-08T22:43:43.874Z,1.61
2022-12-08T22:48:45.708Z,1.35
2022-12-08T22:53:48.358Z,1.45
2022-12-08T22:58:51.206Z,1.61
2022-12-08T23:03:53.512Z,1.55
2022-12-08T23:08:56.165Z,1.45
2022-12-08T23:14:00.433Z,1.54
2022-12-08T23:19:02.309Z,1.47
2022-12-08T23:24:04.493Z,1.50
2022-12-08T23:29:06.251Z,1.43
2022-12-08T23:34:08.059Z,1.48
2022-12-08T23:39:11.072Z,1.41
2022-12-08T23:44:12.853Z,1.56
2022-12-08T23:49:14.747Z,1.41
2022-12-08T23:54:17.438Z,1.48
2022-12-08T23:59:19.369Z,1.56
